createdAt,value
2022-10-02T00:01:19.042Z,99917.84
2022-10-02T00:06:23.424Z,99917.94
2022-10-02T00:11:32.846Z,99926.94
2022-10-02T00:16:40.280Z,99928.97
2022-10-02T00:22:01.485Z,99927.41
2022-10-02T00:27:18.302Z,99928.03
2022-10-02T00:32:38.012Z,99946.09
2022-10-02T00:37:58.385Z,99932.69
2022-10-02T00:43:19.964Z,99942.75
2022-10-02T00:48:37.488Z,99933.56
2022-10-02T00:54:16.902Z,99931.44
2022-10-02T00:59:45.439Z,99924.34
2022-10-02T01:04:48.165Z,99927.34
2022-10-02T01:09:49.958Z,99935.31
2022-10-02T01:14:51.670Z,99934.91
2022-10-02T01:19:53.397Z,99943.63
2022-10-02T01:25:00.981Z,99956.00
2022-10-02T01:30:07.559Z,99952.41
2022-10-02T01:35:09.786Z,99951.81
2022-10-02T01:40:27.734Z,99956.34
2022-10-02T01:45:48.737Z,99961.19
2022-10-02T01:51:01.422Z,99959.88
2022-10-02T01:56:12.021Z,99962.75
2022-10-02T02:01:31.103Z,99963.16
2022-10-02T02:06:41.784Z,99967.69
2022-10-02T02:12:08.923Z,99955.19
2022-10-02T02:17:26.945Z,99952.38
2022-10-02T02:22:31.231Z,99961.41
2022-10-02T02:27:41.492Z,99959.28
2022-10-02T02:32:51.331Z,99969.78
2022-10-02T02:37:56.653Z,99960.22
2022-10-02T02:43:23.361Z,99957.81
2022-10-02T02:48:32.774Z,99961.59
2022-10-02T02:53:52.050Z,99963.59
2022-10-02T02:59:12.451Z,99954.75
2022-10-02T03:04:14.928Z,99927.59
2022-10-02T03:09:20.168Z,99931.06
2022-10-02T03:14:43.663Z,99929.16
2022-10-02T03:19:56.548Z,99946.16
2022-10-02T03:25:32.018Z,99956.44
2022-10-02T03:30:36.459Z,99956.56
2022-10-02T03:35:38.894Z,99963.28
2022-10-02T03:40:40.930Z,99952.56
2022-10-02T03:45:57.929Z,99947.00
2022-10-02T03:50:59.627Z,99956.75
2022-10-02T03:56:07.687Z,99951.09
2022-10-02T04:01:20.281Z,99952.34
2022-10-02T04:06:43.866Z,99952.44
2022-10-02T04:11:54.387Z,99955.00
2022-10-02T04:17:20.677Z,99949.81
2022-10-02T04:22:43.103Z,99948.59
2022-10-02T04:27:51.895Z,99946.47
2022-10-02T04:32:55.722Z,99956.03
2022-10-02T04:38:03.389Z,99949.94
2022-10-02T04:43:07.946Z,99949.63
2022-10-02T04:48:36.887Z,99945.97
2022-10-02T04:54:05.708Z,99943.22
2022-10-02T04:59:20.921Z,99944.56
2022-10-02T05:04:49.090Z,99946.38
2022-10-02T05:10:07.761Z,99950.78
2022-10-02T05:15:40.944Z,99949.81
2022-10-02T05:21:00.784Z,99955.72
2022-10-02T05:26:17.722Z,99970.44
2022-10-02T05:31:34.422Z,99965.19
2022-10-02T05:36:43.676Z,99971.66
2022-10-02T05:42:06.565Z,99980.06
2022-10-02T05:47:13.558Z,99985.09
2022-10-02T05:52:23.394Z,99973.53
2022-10-02T05:57:32.833Z,99969.63
2022-10-02T06:02:40.555Z,99964.28
2022-10-02T06:07:47.647Z,99970.19
2022-10-02T06:13:01.070Z,99974.25
2022-10-02T06:18:10.062Z,99981.81
2022-10-02T06:23:22.457Z,99991.19
2022-10-02T06:28:28.097Z,99993.47
2022-10-02T06:33:32.290Z,99993.28
2022-10-02T06:38:52.373Z,99990.53
2022-10-02T06:44:11.793Z,99998.94
2022-10-02T06:49:52.088Z,99995.47
2022-10-02T06:55:17.200Z,100001.06
2022-10-02T07:00:21.437Z,99995.19
2022-10-02T07:05:51.209Z,99994.88
2022-10-02T07:10:58.709Z,100003.25
2022-10-02T07:16:09.511Z,99998.59
2022-10-02T07:21:30.507Z,100003.25
2022-10-02T07:26:52.228Z,100009.91
2022-10-02T07:32:13.050Z,100010.81
2022-10-02T07:37:39.124Z,100015.31
2022-10-02T07:43:02.113Z,100024.91
2022-10-02T07:48:23.978Z,100022.34
2022-10-02T07:53:48.935Z,100038.56
2022-10-02T07:59:08.262Z,100047.22
2022-10-02T08:04:19.210Z,100049.97
2022-10-02T08:09:33.513Z,100041.88
2022-10-02T08:14:42.309Z,100042.00
2022-10-02T08:19:48.409Z,100042.00
2022-10-02T08:24:54.965Z,100042.56
2022-10-02T08:30:03.619Z,100047.00
2022-10-02T08:35:14.310Z,100054.63
2022-10-02T08:40:34.845Z,100050.47
2022-10-02T08:45:49.121Z,100044.47
2022-10-02T08:51:17.810Z,100052.34
2022-10-02T08:56:48.362Z,100043.38
2022-10-02T09:02:27.791Z,100048.09
2022-10-02T09:07:36.460Z,100053.03
2022-10-02T09:13:15.891Z,100059.53
2022-10-02T09:18:25.230Z,100056.06
2022-10-02T09:23:57.281Z,100037.38
2022-10-02T09:29:11.189Z,100043.28
2022-10-02T09:34:37.280Z,100035.84
2022-10-02T09:39:57.574Z,100037.78
2022-10-02T09:45:19.139Z,100032.75
2022-10-02T09:50:45.303Z,100025.56
2022-10-02T09:55:59.316Z,100027.44
2022-10-02T10:01:33.838Z,100031.38
2022-10-02T10:06:47.326Z,100038.47
2022-10-02T10:12:25.879Z,100026.91
2022-10-02T10:17:51.773Z,100019.44
2022-10-02T10:23:07.791Z,100032.13
2022-10-02T10:28:40.438Z,100041.84
2022-10-02T10:33:54.996Z,100035.56
2022-10-02T10:39:06.838Z,100058.16
2022-10-02T10:44:17.473Z,100057.22
2022-10-02T10:50:10.557Z,100069.78
2022-10-02T10:55:34.508Z,100078.50
2022-10-02T11:00:56.261Z,100070.66
2022-10-02T11:06:36.679Z,100087.84
2022-10-02T11:11:44.278Z,100087.09
2022-10-02T11:17:04.226Z,100086.97
2022-10-02T11:22:07.335Z,100095.50
2022-10-02T11:27:18.927Z,100095.53
2022-10-02T11:32:56.898Z,100099.88
2022-10-02T11:38:03.927Z,100094.97
2022-10-02T11:43:28.367Z,100106.34
2022-10-02T11:48:39.215Z,100106.13
2022-10-02T11:53:59.345Z,100111.88
2022-10-02T11:59:24.343Z,100114.59
2022-10-02T12:04:52.370Z,100112.94
2022-10-02T12:10:31.231Z,100106.22
2022-10-02T12:16:10.385Z,100109.72
2022-10-02T12:21:49.089Z,100107.06
2022-10-02T12:27:27.972Z,100095.69
2022-10-02T12:33:02.669Z,100097.94
2022-10-02T12:38:21.788Z,100089.41
2022-10-02T12:43:59.921Z,100089.44
2022-10-02T12:49:34.211Z,100093.53
2022-10-02T12:55:09.899Z,100100.06
2022-10-02T13:00:16.697Z,100101.97
2022-10-02T13:05:47.068Z,100096.06
2022-10-02T13:10:57.415Z,100103.44
2022-10-02T13:16:11.022Z,100109.09
2022-10-02T13:21:31.163Z,100111.16
2022-10-02T13:26:52.286Z,100123.38
2022-10-02T13:32:17.911Z,100118.34
2022-10-02T13:37:41.830Z,100121.56
2022-10-02T13:43:20.403Z,100120.97
2022-10-02T13:48:36.075Z,100100.22
2022-10-02T13:53:55.842Z,100101.88
2022-10-02T13:59:42.048Z,100110.38
2022-10-02T14:04:55.968Z,100117.50
2022-10-02T14:10:03.962Z,100115.06
2022-10-02T14:15:19.785Z,100119.03
2022-10-02T14:20:52.628Z,100113.38
2022-10-02T14:26:00.322Z,100115.94
2022-10-02T14:31:27.100Z,100126.34
2022-10-02T14:36:43.615Z,100127.56
2022-10-02T14:42:39.861Z,100129.84
2022-10-02T14:48:05.181Z,100143.03
2022-10-02T14:53:26.534Z,100132.38
2022-10-02T14:58:46.939Z,100148.91
2022-10-02T15:04:08.136Z,100150.44
2022-10-02T15:09:24.241Z,100149.91
2022-10-02T15:14:44.119Z,100143.66
2022-10-02T15:20:03.500Z,100144.88
2022-10-02T15:25:28.362Z,100142.69
2022-10-02T15:30:39.420Z,100147.97
2022-10-02T15:36:10.645Z,100163.31
2022-10-02T15:41:12.360Z,100165.06
2022-10-02T15:46:17.012Z,100172.44
2022-10-02T15:51:54.953Z,100176.25
2022-10-02T15:57:27.210Z,100194.66
2022-10-02T16:02:31.190Z,100192.13
2022-10-02T16:08:00.568Z,100197.00
2022-10-02T16:13:11.400Z,100213.25
2022-10-02T16:18:34.363Z,100212.13
2022-10-02T16:23:51.250Z,100210.03
2022-10-02T16:29:11.221Z,100207.63
2022-10-02T16:34:39.171Z,100216.25
2022-10-02T16:39:59.370Z,100226.69
2022-10-02T16:45:43.316Z,100236.28
2022-10-02T16:50:51.132Z,100239.63
2022-10-02T16:56:06.909Z,100237.38
2022-10-02T17:01:24.842Z,100247.38
2022-10-02T17:06:39.400Z,100259.09
2022-10-02T17:12:02.497Z,100270.84
2022-10-02T17:17:25.480Z,100286.63
2022-10-02T17:22:27.496Z,100283.34
2022-10-02T17:27:42.486Z,100293.91
2022-10-02T17:32:47.324Z,100305.03
2022-10-02T17:38:02.447Z,100327.44
2022-10-02T17:43:37.350Z,100329.41
2022-10-02T17:48:53.695Z,100345.09
2022-10-02T17:54:23.116Z,100355.38
2022-10-02T18:00:02.977Z,100365.63
2022-10-02T18:05:21.804Z,100376.88
2022-10-02T18:10:46.280Z,100383.53
2022-10-02T18:16:04.624Z,100398.25
2022-10-02T18:21:23.265Z,100414.38
2022-10-02T18:26:27.768Z,100425.22
2022-10-02T18:31:56.691Z,100435.19
2022-10-02T18:37:25.142Z,100436.13
2022-10-02T18:42:40.044Z,100439.50
2022-10-02T18:48:08.263Z,100439.75
2022-10-02T18:53:23.639Z,100441.38
2022-10-02T18:58:52.781Z,100435.91
2022-10-02T19:04:09.882Z,100437.13
2022-10-02T19:09:20.106Z,100447.25
2022-10-02T19:14:33.336Z,100452.78
2022-10-02T19:19:36.853Z,100466.13
2022-10-02T19:24:41.986Z,100479.63
2022-10-02T19:29:57.311Z,100485.63
2022-10-02T19:35:20.769Z,100489.09
2022-10-02T19:40:26.712Z,100490.50
2022-10-02T19:45:35.304Z,100503.72
2022-10-02T19:50:42.944Z,100506.25
2022-10-02T19:55:46.604Z,100516.53
2022-10-02T20:00:53.380Z,100520.59
2022-10-02T20:06:14.241Z,100517.47
2022-10-02T20:11:34.864Z,100529.09
2022-10-02T20:16:55.342Z,100533.59
2022-10-02T20:22:07.487Z,100545.34
2022-10-02T20:27:35.957Z,100548.00
2022-10-02T20:32:43.337Z,100554.00
2022-10-02T20:37:49.157Z,100559.47
2022-10-02T20:43:03.045Z,100565.03
2022-10-02T20:49:06.514Z,100569.19
2022-10-02T20:54:32.254Z,100577.56
2022-10-02T20:59:46.929Z,100578.81
2022-10-02T21:05:00.890Z,100580.22
2022-10-02T21:10:37.872Z,100582.09
2022-10-02T21:16:36.997Z,100586.25
2022-10-02T21:21:56.236Z,100590.38
2022-10-02T21:27:19.374Z,100604.25
2022-10-02T21:33:00.113Z,100622.06
2022-10-02T21:38:19.965Z,100638.16
2022-10-02T21:43:27.671Z,100641.09
2022-10-02T21:48:50.762Z,100646.00
2022-10-02T21:54:05.067Z,100654.03
2022-10-02T21:59:26.942Z,100666.06
2022-10-02T22:04:49.877Z,100666.44
2022-10-02T22:09:54.354Z,100666.44
2022-10-02T22:15:22.724Z,100675.56
2022-10-02T22:20:49.948Z,100672.78
2022-10-02T22:26:22.888Z,100688.06
2022-10-02T22:31:27.524Z,100690.66
2022-10-02T22:36:54.937Z,100687.28
2022-10-02T22:42:08.652Z,100686.50
2022-10-02T22:47:15.589Z,100694.47
2022-10-02T22:52:27.059Z,100713.81
2022-10-02T22:57:51.503Z,100726.66
2022-10-02T23:03:19.457Z,100733.25
2022-10-02T23:08:57.457Z,100750.31
2022-10-02T23:14:06.039Z,100743.00
2022-10-02T23:19:14.663Z,100741.47
2022-10-02T23:24:41.409Z,100749.19
2022-10-02T23:30:07.817Z,100749.19
2022-10-02T23:35:26.604Z,100754.94
2022-10-02T23:41:31.543Z,100752.16
2022-10-02T23:47:04.293Z,100764.94
2022-10-02T23:52:43.231Z,100758.38
2022-10-02T23:58:00.142Z,100767.94
